KOKC/OKC METAR and TAF weather

Enter ICAO airport designator
Station Type Date Time Source
KOKC METAR 2022/01/23 10:52 UTC NOAA

KOKC 231052Z 23007KT 10SM CLR M02/M10 A3019 RMK AO2 SLP229 T10171100 $


Station Type Date Time Source
KOKC Decoded METAR 2022/01/23 10:52 UTC NOAA

WILL ROGERS WORLD AIRPORT, OK, United States (KOKC) 35-23N 97-36W 390M
Jan 23, 2022 - 05:52 AM EST / 2022.01.23 1052 UTC
Wind: from the SW (230 degrees) at 8 MPH (7 KT):0
Visibility: 10 mile(s):0
Sky conditions: clear
Temperature: 28.9 F (-1.7 C)
Windchill: 21 F (-6 C):1
Dew Point: 14.0 F (-10.0 C)
Relative Humidity: 53%
Pressure (altimeter): 30.19 in. Hg (1022 hPa)
ob: KOKC 231052Z 23007KT 10SM CLR M02/M10 A3019 RMK AO2 SLP229 T10171100
cycle: 11

Station Type Date Time Source
KOKC TAF 2022/01/23 12:22 UTC NOAA

TAF KOKC 231120Z 2312/2412 25008KT P6SM SKC
FM231600 33008KT P6SM SKC
FM240200 19005KT P6SM SKC

Example: see airport list